Time;durP1;ratioP1;P1;durP2;ratioP2;P2;SDS_P1;SDS_P2;PMS_P1;PMS_P2;Temp;Humidity;BMP_temperature;BMP_pressure;BME280_temperature;BME280_humidity;BME280_pressure;Samples;Min_cycle;Max_cycle;Signal;HPM_P1;HPM_P2
2022/07/09 00:00:57;;;;;;;12.57;8.00;;;;;;;19.99;57.11;102911.78;5213987;28;20881;-50
2022/07/09 00:03:30;;;;;;;12.32;8.05;;;;;;;20.02;57.33;102910.63;5214908;28;20418;-53
2022/07/09 00:06:03;;;;;;;14.68;9.07;;;;;;;19.97;57.35;102907.56;5212930;28;20829;-52
2022/07/09 00:08:36;;;;;;;14.98;8.98;;;;;;;20.01;57.29;102914.31;5183253;28;20753;-51
2022/07/09 00:11:10;;;;;;;16.38;9.80;;;;;;;20.02;57.57;102910.63;5214182;28;20442;-48
2022/07/09 00:13:43;;;;;;;17.10;9.98;;;;;;;20.01;57.50;102917.00;5213973;28;20547;-53
2022/07/09 00:16:17;;;;;;;18.52;10.63;;;;;;;19.98;57.61;102911.94;5215253;28;20468;-54
2022/07/09 00:18:50;;;;;;;14.98;10.70;;;;;;;19.96;57.82;102905.91;5214683;28;20412;-48
2022/07/09 00:21:23;;;;;;;15.93;9.32;;;;;;;19.92;58.00;102909.91;5214977;28;20411;-50
2022/07/09 00:23:55;;;;;;;16.13;9.80;;;;;;;19.88;58.17;102912.09;5192612;28;20425;-49
2022/07/09 00:26:28;;;;;;;17.88;10.88;;;;;;;19.69;58.06;102905.09;5204878;28;20458;-48
2022/07/09 00:29:01;;;;;;;16.90;10.40;;;;;;;19.86;58.28;102915.91;5215928;28;20910;-52
2022/07/09 00:31:35;;;;;;;15.07;9.10;;;;;;;19.81;58.30;102911.84;5215603;28;20412;-54
2022/07/09 00:34:08;;;;;;;18.23;10.43;;;;;;;19.84;58.47;102910.69;5208952;28;20411;-55
2022/07/09 00:36:40;;;;;;;14.00;9.50;;;;;;;19.83;58.56;102910.88;5213435;28;20408;-50
2022/07/09 00:39:13;;;;;;;16.42;9.30;;;;;;;19.84;58.34;102917.91;5214012;28;20935;-51
2022/07/09 00:41:46;;;;;;;15.48;9.18;;;;;;;19.82;58.53;102912.72;5211474;28;20455;-49
2022/07/09 00:44:19;;;;;;;15.35;8.80;;;;;;;19.80;58.66;102904.00;5214783;28;20414;-48
2022/07/09 00:46:53;;;;;;;13.17;7.63;;;;;;;19.73;58.86;102901.13;5218822;28;20428;-51
2022/07/09 00:49:27;;;;;;;14.10;8.00;;;;;;;19.76;58.80;102903.47;5216937;28;20474;-51
2022/07/09 00:52:00;;;;;;;12.45;8.23;;;;;;;19.76;59.00;102900.78;5214170;28;20751;-49
2022/07/09 00:54:34;;;;;;;10.57;7.93;;;;;;;19.75;59.16;102898.25;5214922;28;20448;-51
2022/07/09 00:57:09;;;;;;;16.85;8.90;;;;;;;19.50;59.02;102849.84;5210359;28;21195;-53
2022/07/09 00:59:42;;;;;;;15.40;8.27;;;;;;;19.73;59.24;102892.25;5212830;28;20880;-49
2022/07/09 01:02:17;;;;;;;12.88;7.68;;;;;;;19.71;59.19;102891.53;5219277;28;20426;-50
2022/07/09 01:04:50;;;;;;;13.68;8.00;;;;;;;19.64;59.20;102880.63;5212350;28;20415;-52
2022/07/09 01:07:32;;;;;;;9.80;6.80;;;;;;;19.68;59.32;102871.25;5217127;28;20694;-55
2022/07/09 01:10:06;;;;;;;8.77;7.15;;;;;;;19.66;59.36;102873.25;5200452;28;20421;-53
2022/07/09 01:12:39;;;;;;;11.57;7.25;;;;;;;19.66;59.52;102872.41;5198929;28;20850;-51
2022/07/09 01:15:14;;;;;;;11.73;7.03;;;;;;;19.62;59.56;102876.38;5212968;28;20423;-48
2022/07/09 01:17:51;;;;;;;10.88;7.47;;;;;;;19.58;59.52;102865.16;5214901;28;20413;-55
2022/07/09 01:20:28;;;;;;;13.40;7.22;;;;;;;19.57;59.53;102863.44;5215693;28;20426;-51
2022/07/09 01:23:01;;;;;;;8.65;5.57;;;;;;;19.60;59.63;102873.84;5214210;28;20771;-50
2022/07/09 01:25:38;;;;;;;11.68;7.07;;;;;;;19.55;59.66;102870.84;5213156;28;20426;-54
2022/07/09 01:28:11;;;;;;;11.15;6.18;;;;;;;19.63;59.72;102868.16;5209628;28;20403;-48
2022/07/09 01:30:44;;;;;;;7.60;6.00;;;;;;;19.63;60.00;102865.50;5218704;28;20427;-48
2022/07/09 01:33:16;;;;;;;10.50;6.35;;;;;;;19.67;59.68;102863.38;5213579;28;20512;-51
2022/07/09 01:35:51;;;;;;;12.25;6.45;;;;;;;19.64;59.67;102864.53;5212119;28;20443;-52
2022/07/09 01:38:23;;;;;;;9.55;5.95;;;;;;;19.71;59.78;102870.09;5214301;28;20459;-55
2022/07/09 01:40:57;;;;;;;11.30;6.65;;;;;;;19.67;59.85;102864.22;5210619;28;21376;-54
2022/07/09 01:43:30;;;;;;;9.45;6.20;;;;;;;19.77;59.78;102859.56;5214824;28;20513;-52
2022/07/09 01:46:03;;;;;;;10.27;6.47;;;;;;;19.79;59.92;102868.31;5214037;28;20801;-51
2022/07/09 01:48:36;;;;;;;9.95;6.13;;;;;;;19.81;59.89;102858.22;5209710;28;20450;-54
2022/07/09 01:51:10;;;;;;;10.65;6.47;;;;;;;19.84;59.83;102864.28;5213919;28;20491;-53
2022/07/09 01:53:43;;;;;;;10.03;6.30;;;;;;;19.79;60.06;102851.38;5216665;28;20492;-52
2022/07/09 01:56:15;;;;;;;8.35;6.47;;;;;;;19.86;59.95;102857.75;5214621;28;20757;-52
2022/07/09 01:58:48;;;;;;;9.65;6.15;;;;;;;19.91;59.86;102849.22;5212668;28;20429;-51
2022/07/09 02:01:21;;;;;;;10.05;5.40;;;;;;;19.81;59.86;102850.19;5214440;28;20500;-53
2022/07/09 02:03:54;;;;;;;9.75;5.68;;;;;;;19.84;59.82;102850.88;5217871;28;20447;-52
2022/07/09 02:06:28;;;;;;;11.40;5.90;;;;;;;19.76;59.89;102832.94;5219838;28;20434;-55
2022/07/09 02:09:04;;;;;;;11.95;6.00;;;;;;;19.91;59.94;102849.22;5219749;28;21033;-55
2022/07/09 02:11:37;;;;;;;7.82;5.57;;;;;;;19.89;59.93;102851.25;5216544;28;20457;-47
2022/07/09 02:14:09;;;;;;;8.82;6.15;;;;;;;19.91;59.85;102847.38;5208654;28;20424;-51
2022/07/09 02:16:42;;;;;;;10.27;5.90;;;;;;;19.72;59.97;102810.09;5216247;28;20943;-48
2022/07/09 02:19:15;;;;;;;11.48;6.30;;;;;;;19.96;59.69;102846.91;5217259;28;20500;-54
2022/07/09 02:21:49;;;;;;;9.13;5.10;;;;;;;19.96;59.70;102844.22;5216117;28;21027;-53
2022/07/09 02:24:22;;;;;;;6.65;5.00;;;;;;;19.99;59.73;102835.84;5214336;28;20460;-50
2022/07/09 02:26:55;;;;;;;9.40;5.53;;;;;;;20.02;59.62;102843.56;5217621;28;20416;-52
2022/07/09 02:29:27;;;;;;;10.40;5.70;;;;;;;20.03;59.57;102842.56;5217017;28;20473;-50
2022/07/09 02:32:00;;;;;;;7.90;5.13;;;;;;;20.03;59.54;102843.38;5200665;28;20428;-50
2022/07/09 02:34:33;;;;;;;8.40;5.22;;;;;;;19.97;59.55;102824.44;5208271;28;20760;-51
2022/07/09 02:37:07;;;;;;;6.97;5.18;;;;;;;19.85;59.42;102802.47;5215872;28;20466;-48
2022/07/09 02:39:40;;;;;;;8.97;4.80;;;;;;;19.43;59.25;102733.59;5215910;28;20516;-56
2022/07/09 02:42:13;;;;;;;8.13;4.82;;;;;;;20.01;59.55;102826.63;5220615;28;20939;-50
2022/07/09 02:44:46;;;;;;;7.68;4.57;;;;;;;19.98;59.45;102820.75;5216779;28;20419;-56
2022/07/09 02:47:18;;;;;;;7.60;4.78;;;;;;;19.97;59.45;102824.44;5216332;28;20485;-53
2022/07/09 02:49:51;;;;;;;9.32;4.65;;;;;;;19.92;59.43;102826.78;5210778;28;20428;-54
2022/07/09 02:52:26;;;;;;;7.05;4.63;;;;;;;19.89;59.43;102819.06;5210712;28;20461;-50
2022/07/09 02:54:59;;;;;;;8.13;5.10;;;;;;;19.79;59.48;102808.47;5214635;28;20895;-50
2022/07/09 02:57:31;;;;;;;8.30;5.00;;;;;;;19.77;59.56;102811.31;5219187;28;20439;-48
2022/07/09 03:00:06;;;;;;;7.22;4.50;;;;;;;19.75;59.47;102818.66;5204994;28;20396;-50
2022/07/09 03:02:39;;;;;;;7.45;4.85;;;;;;;19.72;59.57;102816.31;5214254;28;20708;-49
2022/07/09 03:05:12;;;;;;;8.37;4.90;;;;;;;19.68;59.51;102825.69;5215561;28;20813;-49
2022/07/09 03:07:46;;;;;;;7.28;4.82;;;;;;;19.65;59.51;102817.97;5216870;28;20459;-50
2022/07/09 03:10:18;;;;;;;8.80;5.20;;;;;;;19.62;59.63;102812.91;5214137;28;20473;-47
2022/07/09 03:12:51;;;;;;;8.15;4.88;;;;;;;19.26;59.56;102767.53;5215655;28;20439;-48
2022/07/09 03:15:24;;;;;;;6.90;4.70;;;;;;;19.52;59.65;102822.91;5214567;28;20428;-47
2022/07/09 03:17:56;;;;;;;11.38;4.50;;;;;;;19.51;59.62;102831.94;5215277;28;20500;-51
2022/07/09 03:20:29;;;;;;;7.55;4.35;;;;;;;19.48;59.84;102827.75;5217065;28;20447;-52
2022/07/09 03:23:03;;;;;;;8.15;4.82;;;;;;;19.45;59.75;102821.84;5215401;28;20440;-48
2022/07/09 03:25:36;;;;;;;9.65;5.35;;;;;;;19.31;59.89;102810.75;5212716;28;20403;-51
2022/07/09 03:28:09;;;;;;;6.72;4.60;;;;;;;19.25;59.82;102800.66;5213757;28;20977;-51
2022/07/09 03:30:41;;;;;;;9.55;5.05;;;;;;;19.39;59.92;102817.13;5218014;28;20418;-49
2022/07/09 03:33:14;;;;;;;10.60;5.32;;;;;;;19.38;59.86;102818.97;5216323;28;20427;-53
2022/07/09 03:35:47;;;;;;;8.53;4.60;;;;;;;19.30;59.92;102814.44;5212263;28;20896;-50
2022/07/09 03:38:21;;;;;;;9.38;5.13;;;;;;;19.35;60.02;102817.47;5218642;28;20423;-48
2022/07/09 03:40:54;;;;;;;9.93;5.50;;;;;;;19.37;60.02;102798.56;5213183;28;20567;-46
2022/07/09 03:43:26;;;;;;;9.50;5.55;;;;;;;19.40;60.03;102810.78;5216101;28;20402;-49
2022/07/09 03:45:59;;;;;;;7.95;5.07;;;;;;;19.44;60.17;102809.47;5215495;28;20485;-52
2022/07/09 03:48:32;;;;;;;8.17;4.93;;;;;;;19.41;60.05;102805.25;5210998;28;20438;-53
2022/07/09 03:51:05;;;;;;;7.95;4.85;;;;;;;19.45;60.14;102800.41;5220296;28;20418;-50
2022/07/09 03:53:39;;;;;;;8.73;5.22;;;;;;;19.44;60.12;102799.56;5211801;27;21164;-57
2022/07/09 03:56:12;;;;;;;7.38;5.10;;;;;;;19.36;60.20;102780.81;5215660;28;20427;-49
2022/07/09 03:58:45;;;;;;;9.75;4.97;;;;;;;19.44;60.35;102793.38;5215061;28;20410;-52
2022/07/09 04:01:17;;;;;;;6.55;4.97;;;;;;;19.45;60.23;102793.25;5212914;28;20431;-49
2022/07/09 04:04:08;;;;;;;9.20;5.20;;;;;;;19.46;60.18;102792.22;5214147;28;20787;-54
2022/07/09 04:06:41;;;;;;;7.22;5.25;;;;;;;19.33;60.12;102771.25;5214879;28;20530;-51
2022/07/09 04:09:15;;;;;;;9.10;5.00;;;;;;;19.51;60.28;102789.06;5215373;28;20850;-55
2022/07/09 04:11:47;;;;;;;8.63;4.85;;;;;;;19.45;60.46;102773.63;5216698;28;20447;-51
2022/07/09 04:14:20;;;;;;;6.53;4.40;;;;;;;19.61;60.44;102781.75;5210654;28;20440;-51
2022/07/09 04:16:53;;;;;;;6.90;4.63;;;;;;;19.55;60.43;102761.78;5216519;28;20807;-49
2022/07/09 04:19:25;;;;;;;6.00;3.90;;;;;;;19.70;60.31;102777.28;5213803;28;20411;-52
2022/07/09 04:21:58;;;;;;;7.65;3.95;;;;;;;19.68;60.47;102769.38;5211954;28;20891;-51
2022/07/09 04:24:32;;;;;;;8.70;3.47;;;;;;;19.78;60.44;102780.81;5212483;28;20953;-49
2022/07/09 04:27:06;;;;;;;7.30;3.95;;;;;;;19.83;60.14;102772.28;5211626;28;20522;-50
2022/07/09 04:29:39;;;;;;;5.25;3.70;;;;;;;19.89;60.38;102763.59;5209827;28;20478;-49
2022/07/09 04:32:12;;;;;;;10.45;3.67;;;;;;;19.84;60.42;102757.88;5210837;28;20413;-48
2022/07/09 04:34:45;;;;;;;6.32;3.60;;;;;;;20.00;60.37;102770.47;5216844;28;20434;-47
2022/07/09 04:37:18;;;;;;;9.18;3.47;;;;;;;20.06;60.29;102772.47;5209748;28;20427;-50
2022/07/09 04:39:52;;;;;;;5.97;3.70;;;;;;;20.10;60.13;102768.50;5213944;28;20435;-52
2022/07/09 04:42:25;;;;;;;8.40;3.92;;;;;;;20.15;60.27;102771.50;5212611;28;20435;-51
2022/07/09 04:44:58;;;;;;;8.52;3.72;;;;;;;20.20;60.17;102768.31;5214564;28;20432;-47
2022/07/09 04:47:31;;;;;;;6.67;3.73;;;;;;;20.26;60.09;102768.50;5214176;28;20799;-49
2022/07/09 04:50:05;;;;;;;5.97;3.58;;;;;;;20.27;60.08;102764.78;5212579;28;20431;-50
2022/07/09 04:52:38;;;;;;;5.50;3.63;;;;;;;20.38;60.23;102760.13;5212640;28;20435;-52
2022/07/09 04:55:12;;;;;;;14.52;4.10;;;;;;;20.44;60.09;102762.09;5213104;28;20431;-50
2022/07/09 04:57:45;;;;;;;9.10;3.60;;;;;;;20.53;59.97;102768.34;5213777;28;20423;-49
2022/07/09 05:00:18;;;;;;;5.78;3.88;;;;;;;20.39;60.01;102734.94;5212434;28;20438;-53
2022/07/09 05:02:50;;;;;;;9.45;3.40;;;;;;;20.61;59.91;102753.06;5215910;28;20515;-51
2022/07/09 05:05:25;;;;;;;7.10;3.60;;;;;;;20.53;59.80;102736.13;5214389;28;20439;-53
2022/07/09 05:07:58;;;;;;;7.57;3.97;;;;;;;20.71;59.89;102763.63;5213467;28;20495;-51
2022/07/09 05:10:32;;;;;;;6.65;3.67;;;;;;;20.79;59.74;102769.00;5211868;28;20412;-51
2022/07/09 05:13:05;;;;;;;9.07;4.60;;;;;;;20.92;59.65;102763.09;5212875;28;20418;-52
2022/07/09 05:15:38;;;;;;;4.88;3.92;;;;;;;21.12;59.42;102763.53;5209188;28;20442;-48
2022/07/09 05:18:10;;;;;;;9.85;4.55;;;;;;;21.37;59.27;102767.84;5218885;28;20435;-50
2022/07/09 05:20:43;;;;;;;9.10;4.57;;;;;;;21.45;59.18;102768.81;5215136;28;20510;-51
2022/07/09 05:23:16;;;;;;;8.40;4.63;;;;;;;21.57;58.94;102762.03;5209390;28;20521;-51
2022/07/09 05:25:50;;;;;;;6.93;5.10;;;;;;;21.71;58.83;102777.44;5211780;28;20784;-50
2022/07/09 05:28:22;;;;;;;8.25;5.47;;;;;;;21.84;58.63;102779.56;5209916;28;21074;-48
2022/07/09 05:30:55;;;;;;;8.85;5.43;;;;;;;21.82;58.42;102776.19;5211597;28;20593;-55
2022/07/09 05:33:28;;;;;;;10.43;7.20;;;;;;;21.72;58.39;102762.97;5210358;28;20945;-50
2022/07/09 05:36:01;;;;;;;12.15;7.43;;;;;;;21.79;58.37;102771.16;5212504;28;20494;-51
2022/07/09 05:38:33;;;;;;;9.90;7.57;;;;;;;21.82;58.40;102770.81;5214155;28;20565;-50
2022/07/09 05:41:10;;;;;;;14.40;8.82;;;;;;;21.88;58.14;102780.88;5213692;28;20448;-51
2022/07/09 05:43:42;;;;;;;12.70;8.57;;;;;;;21.90;58.25;102770.78;5211899;28;20507;-50
2022/07/09 05:46:15;;;;;;;12.20;8.60;;;;;;;21.76;58.08;102750.00;5213388;28;20450;-47
2022/07/09 05:48:48;;;;;;;12.20;8.68;;;;;;;22.04;57.96;102778.06;5214871;28;20621;-52
2022/07/09 05:51:20;;;;;;;13.23;8.37;;;;;;;22.09;57.93;102773.00;5215887;28;20858;-51
2022/07/09 05:53:53;;;;;;;14.32;8.70;;;;;;;22.34;57.57;102778.22;5215245;28;20466;-55
2022/07/09 05:56:28;;;;;;;12.85;7.43;;;;;;;22.79;57.14;102762.97;5217708;28;20427;-52
2022/07/09 05:59:02;;;;;;;9.40;6.18;;;;;;;23.38;56.62;102779.19;5215871;28;20542;-53
2022/07/09 06:01:38;;;;;;;8.30;5.37;;;;;;;23.99;56.01;102769.94;5214551;28;20463;-54
2022/07/09 06:04:11;;;;;;;7.90;5.03;;;;;;;24.71;54.94;102755.41;5184314;28;20908;-49
2022/07/09 06:06:44;;;;;;;9.47;4.60;;;;;;;24.95;54.56;102773.88;5205463;28;20498;-57
2022/07/09 06:09:17;;;;;;;8.25;4.40;;;;;;;24.97;54.28;102779.09;5215520;28;20529;-52
2022/07/09 06:11:51;;;;;;;7.60;4.05;;;;;;;24.83;54.10;102757.38;5215361;27;20542;-51
2022/07/09 06:14:24;;;;;;;6.80;4.40;;;;;;;24.96;53.96;102791.78;5212734;28;20511;-54
2022/07/09 06:16:56;;;;;;;14.90;10.13;;;;;;;25.19;53.65;102772.59;5213510;28;20870;-53
2022/07/09 06:19:29;;;;;;;8.40;4.20;;;;;;;25.50;53.10;102772.09;5211689;28;20545;-56
2022/07/09 06:22:03;;;;;;;6.25;3.28;;;;;;;25.68;52.57;102787.78;5205789;28;20453;-52
2022/07/09 06:24:35;;;;;;;5.60;3.38;;;;;;;25.71;52.39;102779.25;5215786;28;20894;-49
2022/07/09 06:27:10;;;;;;;7.05;4.03;;;;;;;25.67;52.24;102777.16;5204444;28;20424;-52
2022/07/09 06:29:43;;;;;;;4.15;3.10;;;;;;;25.55;52.00;102787.75;5210674;28;20435;-51
2022/07/09 06:32:15;;;;;;;6.25;2.60;;;;;;;25.45;51.96;102787.28;5210459;28;20768;-50
2022/07/09 06:34:49;;;;;;;3.83;2.35;;;;;;;25.53;51.56;102758.16;5210001;28;20840;-54
2022/07/09 06:37:21;;;;;;;6.33;2.00;;;;;;;26.26;50.70;102773.75;5218987;28;20415;-51
2022/07/09 06:39:56;;;;;;;6.25;2.03;;;;;;;27.15;49.98;102787.88;5220950;28;20425;-57
2022/07/09 06:42:30;;;;;;;5.67;2.03;;;;;;;27.63;48.99;102790.19;5221657;28;20513;-54
2022/07/09 06:45:03;;;;;;;3.28;1.48;;;;;;;27.65;48.65;102791.63;5223410;28;20422;-51
2022/07/09 06:47:36;;;;;;;3.80;1.80;;;;;;;27.45;48.56;102794.44;5224148;28;20493;-53
2022/07/09 06:50:09;;;;;;;3.63;1.83;;;;;;;27.16;48.73;102805.81;5223163;28;20430;-49
2022/07/09 06:52:42;;;;;;;3.50;1.63;;;;;;;26.79;48.85;102805.44;5221006;28;20415;-50
2022/07/09 06:55:15;;;;;;;5.55;1.80;;;;;;;26.41;48.89;102803.34;5222833;28;20423;-51
2022/07/09 06:57:49;;;;;;;2.42;1.30;;;;;;;26.14;48.92;102808.75;5222375;28;20416;-50
2022/07/09 07:00:23;;;;;;;4.67;1.70;;;;;;;25.68;48.99;102790.50;5223081;28;20411;-52
2022/07/09 07:02:59;;;;;;;2.63;1.60;;;;;;;25.41;49.33;102794.97;5218601;28;20416;-52
2022/07/09 07:05:31;;;;;;;2.80;1.20;;;;;;;25.11;49.43;102802.47;5219072;28;20404;-50
2022/07/09 07:08:05;;;;;;;2.58;1.50;;;;;;;25.09;49.42;102804.53;5223047;28;20408;-52
2022/07/09 07:10:38;;;;;;;2.53;1.20;;;;;;;25.03;49.34;102816.97;5221849;28;20415;-52
2022/07/09 07:13:12;;;;;;;4.18;1.70;;;;;;;25.02;49.30;102803.66;5224316;28;20408;-51
2022/07/09 07:15:48;;;;;;;4.03;1.48;;;;;;;25.05;49.49;102803.25;5223196;28;20423;-50
2022/07/09 07:18:21;;;;;;;2.80;1.25;;;;;;;24.98;49.14;102805.91;5221643;28;20412;-48
2022/07/09 07:20:54;;;;;;;3.22;1.00;;;;;;;24.84;49.01;102793.38;5224053;28;20443;-49
2022/07/09 07:23:27;;;;;;;2.90;1.02;;;;;;;24.61;48.87;102785.50;5220968;28;22107;-51
2022/07/09 07:26:00;;;;;;;3.43;1.33;;;;;;;24.75;49.07;102803.47;5218698;28;20411;-47
2022/07/09 07:28:35;;;;;;;3.40;1.20;;;;;;;24.82;48.85;102804.34;5221434;28;20509;-48
2022/07/09 07:31:07;;;;;;;3.63;1.23;;;;;;;24.91;48.58;102804.22;5219855;28;20424;-51
2022/07/09 07:33:40;;;;;;;3.50;1.50;;;;;;;24.88;48.53;102797.34;5220703;28;20400;-43
2022/07/09 07:36:13;;;;;;;3.60;1.33;;;;;;;25.01;48.51;102807.41;5220008;28;20496;-53
2022/07/09 07:38:46;;;;;;;4.80;1.40;;;;;;;25.09;48.25;102815.34;5212911;28;20962;-44
2022/07/09 07:41:20;;;;;;;4.13;0.95;;;;;;;25.16;48.15;102815.44;5209638;28;20574;-40
2022/07/09 07:43:54;;;;;;;3.38;1.23;;;;;;;25.13;48.06;102805.00;5213127;27;20551;-38
2022/07/09 07:46:27;;;;;;;5.95;1.50;;;;;;;25.08;48.05;102802.84;5215040;28;20563;-38
2022/07/09 07:49:00;;;;;;;3.55;1.15;;;;;;;25.07;48.04;102803.91;5217369;28;20422;-42
2022/07/09 07:51:32;;;;;;;5.47;1.30;;;;;;;25.03;47.99;102814.28;5210379;28;20897;-41
2022/07/09 07:54:05;;;;;;;4.65;1.38;;;;;;;25.04;47.92;102807.00;5211516;28;20426;-39
2022/07/09 07:56:39;;;;;;;6.45;1.40;;;;;;;25.07;47.90;102801.19;5209388;28;20439;-40
2022/07/09 07:59:13;;;;;;;7.32;1.75;;;;;;;25.06;47.83;102799.53;5197698;28;20417;-39
2022/07/09 08:01:46;;;;;;;5.55;1.50;;;;;;;25.00;47.78;102768.72;5211668;28;20426;-38
2022/07/09 08:04:19;;;;;;;4.03;1.33;;;;;;;25.29;47.68;102794.69;5210811;28;20435;-38
2022/07/09 08:06:52;;;;;;;5.32;1.33;;;;;;;25.48;47.63;102786.88;5216934;28;20458;-39
2022/07/09 08:09:24;;;;;;;7.03;1.48;;;;;;;25.71;47.44;102800.06;5210622;28;20412;-40
2022/07/09 08:11:57;;;;;;;4.03;1.00;;;;;;;25.70;47.27;102793.81;5219557;28;21270;-38
2022/07/09 08:14:31;;;;;;;2.30;1.03;;;;;;;25.91;47.08;102803.69;5218748;28;20823;-40
2022/07/09 08:17:04;;;;;;;7.28;1.25;;;;;;;26.01;46.73;102800.59;5219773;28;20412;-39
2022/07/09 08:19:37;;;;;;;8.18;1.52;;;;;;;26.04;46.55;102792.06;5201897;28;20801;-39
2022/07/09 08:22:10;;;;;;;5.47;1.20;;;;;;;26.15;46.32;102805.00;5204844;28;20902;-38
2022/07/09 08:24:43;;;;;;;7.43;1.30;;;;;;;26.13;46.42;102806.22;5213274;28;20922;-39
2022/07/09 08:27:16;;;;;;;3.97;1.15;;;;;;;26.14;46.20;102805.22;5218468;28;20443;-40
2022/07/09 08:29:50;;;;;;;5.00;1.70;;;;;;;26.26;46.08;102800.81;5218275;28;20513;-39
2022/07/09 08:32:22;;;;;;;3.95;1.13;;;;;;;26.47;45.79;102805.22;5215039;28;20423;-45
2022/07/09 08:34:56;;;;;;;6.32;1.52;;;;;;;26.66;45.52;102801.72;5212641;28;20420;-40
2022/07/09 08:37:28;;;;;;;5.82;1.40;;;;;;;26.68;45.32;102796.91;5215567;28;20473;-38
2022/07/09 08:40:02;;;;;;;6.95;1.52;;;;;;;26.72;45.24;102805.44;5211117;28;20978;-45
2022/07/09 08:42:35;;;;;;;2.53;1.08;;;;;;;26.71;45.11;102803.78;5211453;28;20790;-40
2022/07/09 08:45:14;;;;;;;4.70;1.17;;;;;;;26.64;45.07;102803.78;5202822;28;20806;-39
2022/07/09 08:47:47;;;;;;;4.13;1.30;;;;;;;26.52;45.15;102785.66;5205779;28;20885;-46
2022/07/09 08:50:20;;;;;;;3.85;0.95;;;;;;;26.63;45.00;102807.56;5205312;28;20510;-44
2022/07/09 08:52:55;;;;;;;3.33;1.17;;;;;;;26.66;44.84;102800.88;5204619;28;20496;-43
2022/07/09 08:55:31;;;;;;;3.92;1.33;;;;;;;26.66;44.69;102790.88;5206510;28;20401;-40
2022/07/09 08:58:04;;;;;;;6.38;1.13;;;;;;;26.80;44.52;102807.13;5202806;28;20423;-42
2022/07/09 09:00:39;;;;;;;4.18;0.85;;;;;;;26.83;44.27;102804.81;5203347;28;20532;-37
2022/07/09 09:03:11;;;;;;;5.25;1.50;;;;;;;26.72;44.17;102782.94;5202342;28;20419;-43
2022/07/09 09:05:44;;;;;;;7.50;1.25;;;;;;;26.99;44.08;102806.25;5205048;28;20901;-39
2022/07/09 09:08:22;;;;;;;6.00;1.50;;;;;;;27.17;43.73;102804.78;5205380;28;20438;-39
2022/07/09 09:10:55;;;;;;;2.45;1.00;;;;;;;27.36;43.49;102795.75;5204640;28;20435;-45
2022/07/09 09:13:27;;;;;;;3.13;0.85;;;;;;;27.64;43.26;102805.44;5202554;28;20393;-40
2022/07/09 09:16:07;;;;;;;5.57;1.30;;;;;;;27.78;42.99;102804.31;5207771;28;20423;-40
2022/07/09 09:18:42;;;;;;;8.05;1.50;;;;;;;27.76;42.97;102800.97;5208414;28;20420;-44
2022/07/09 09:21:16;;;;;;;4.55;1.10;;;;;;;27.65;42.94;102807.09;5211360;28;20485;-39
2022/07/09 09:23:52;;;;;;;6.10;1.40;;;;;;;27.55;42.86;102800.25;5212367;28;20434;-42
2022/07/09 09:26:27;;;;;;;4.10;0.93;;;;;;;27.41;42.69;102773.38;5205794;28;21032;-43
2022/07/09 09:29:03;;;;;;;5.18;0.85;;;;;;;27.49;42.49;102806.53;5209006;28;20492;-42
2022/07/09 09:31:38;;;;;;;2.63;0.77;;;;;;;27.20;42.58;102797.03;5210617;28;20548;-45
2022/07/09 09:34:16;;;;;;;3.40;0.93;;;;;;;26.92;42.66;102804.59;5210800;28;20435;-38
2022/07/09 09:36:51;;;;;;;3.92;1.25;;;;;;;26.81;42.65;102806.06;5214146;28;20561;-41
2022/07/09 09:39:25;;;;;;;3.53;1.20;;;;;;;26.67;42.54;102807.97;5213678;28;20580;-42
2022/07/09 09:42:00;;;;;;;2.75;1.08;;;;;;;26.59;42.62;102817.13;5209888;28;20415;-46
2022/07/09 09:44:37;;;;;;;5.30;1.52;;;;;;;26.64;42.48;102820.06;5215441;28;20400;-41
2022/07/09 09:47:11;;;;;;;8.27;1.33;;;;;;;26.67;42.40;102830.47;5211933;28;20793;-39
2022/07/09 09:49:44;;;;;;;3.60;1.13;;;;;;;26.76;42.24;102827.53;5217824;28;20431;-40
2022/07/09 09:52:19;;;;;;;3.47;1.00;;;;;;;26.71;42.20;102820.06;5214312;28;20427;-41
2022/07/09 09:54:53;;;;;;;4.30;1.30;;;;;;;26.73;42.11;102827.97;5211744;28;20884;-39
2022/07/09 09:57:27;;;;;;;3.20;1.30;;;;;;;26.62;42.10;102832.97;5217374;28;20427;-46
2022/07/09 10:00:03;;;;;;;3.08;1.30;;;;;;;26.60;42.07;102835.09;5215213;28;20862;-38
2022/07/09 10:02:39;;;;;;;4.15;0.80;;;;;;;26.50;41.81;102807.53;5211115;28;20713;-40
2022/07/09 10:05:11;;;;;;;7.82;1.38;;;;;;;26.64;41.77;102811.94;5204988;28;20458;-39
2022/07/09 10:07:45;;;;;;;5.93;1.30;;;;;;;26.70;41.74;102839.22;5207771;28;20526;-44
2022/07/09 10:10:20;;;;;;;6.63;1.23;;;;;;;26.61;41.72;102836.75;5214680;27;21006;-39
2022/07/09 10:12:53;;;;;;;3.75;1.35;;;;;;;26.67;41.43;102835.91;5211323;28;20437;-41
2022/07/09 10:15:27;;;;;;;4.68;1.13;;;;;;;26.67;41.68;102838.63;5212468;27;20463;-40
2022/07/09 10:18:12;;;;;;;4.00;1.20;;;;;;;26.68;41.44;102826.72;5211312;28;20430;-38
2022/07/09 10:20:45;;;;;;;5.95;1.40;;;;;;;26.80;41.22;102826.94;5208740;28;20436;-42
2022/07/09 10:23:24;;;;;;;4.75;1.27;;;;;;;26.67;41.30;102849.47;5205221;28;20427;-40
2022/07/09 10:25:57;;;;;;;5.30;1.00;;;;;;;26.52;41.59;102842.56;5206708;28;20451;-39
2022/07/09 10:28:30;;;;;;;6.93;1.27;;;;;;;26.58;41.48;102842.56;5209814;28;20426;-46
2022/07/09 10:31:09;;;;;;;5.83;1.43;;;;;;;26.71;41.40;102835.47;5209676;28;20487;-43
2022/07/09 10:33:53;;;;;;;4.45;1.05;;;;;;;26.83;40.98;102831.09;5209428;28;20470;-41
2022/07/09 10:36:28;;;;;;;6.07;1.45;;;;;;;26.80;41.10;102845.06;5209557;28;20539;-40
2022/07/09 10:39:03;;;;;;;4.15;1.25;;;;;;;26.60;40.98;102839.63;5211949;28;20412;-39
2022/07/09 10:41:35;;;;;;;4.53;1.27;;;;;;;26.49;41.33;102849.25;5210535;28;20431;-42
2022/07/09 10:44:09;;;;;;;3.05;1.20;;;;;;;26.37;41.25;102848.16;5208794;28;20462;-39
2022/07/09 10:46:43;;;;;;;3.20;1.08;;;;;;;26.41;41.21;102847.53;5210416;28;20910;-43
2022/07/09 10:49:18;;;;;;;3.67;1.00;;;;;;;26.64;40.90;102844.44;5209387;28;20426;-39
2022/07/09 10:51:55;;;;;;;2.83;1.15;;;;;;;26.72;40.78;102837.97;5205367;28;20419;-45
2022/07/09 10:54:28;;;;;;;4.15;1.23;;;;;;;26.76;40.53;102835.66;5206867;28;22107;-49
2022/07/09 10:57:01;;;;;;;6.45;1.50;;;;;;;26.91;40.35;102849.84;5211255;28;20801;-39
2022/07/09 10:59:48;;;;;;;4.45;1.25;;;;;;;27.01;40.02;102847.56;5205635;28;20497;-40
2022/07/09 11:02:22;;;;;;;9.70;1.33;;;;;;;27.19;39.83;102859.63;5206900;28;20934;-42
2022/07/09 11:04:56;;;;;;;3.58;1.00;;;;;;;27.24;39.82;102851.72;5209390;28;20768;-41
2022/07/09 11:07:31;;;;;;;3.83;1.00;;;;;;;27.15;39.76;102856.50;5206652;28;20820;-47
2022/07/09 11:10:05;;;;;;;4.67;1.07;;;;;;;27.16;39.72;102857.34;5211600;28;20466;-39
2022/07/09 11:12:49;;;;;;;2.83;1.00;;;;;;;27.34;39.47;102850.19;5213535;28;20544;-39
2022/07/09 11:15:23;;;;;;;4.15;1.30;;;;;;;27.53;39.23;102867.50;5211538;28;20416;-39
2022/07/09 11:17:57;;;;;;;4.63;1.23;;;;;;;27.57;39.18;102866.00;5210162;28;20428;-40
2022/07/09 11:20:33;;;;;;;3.72;1.00;;;;;;;27.58;39.20;102856.81;5212851;28;20990;-43
2022/07/09 11:23:06;;;;;;;6.28;1.45;;;;;;;27.75;38.94;102856.31;5210200;28;20422;-42
2022/07/09 11:25:39;;;;;;;6.07;1.38;;;;;;;27.95;38.68;102845.41;5207161;28;20403;-39
2022/07/09 11:28:21;;;;;;;4.90;1.30;;;;;;;28.22;38.32;102862.38;5207843;28;20426;-38
2022/07/09 11:31:01;;;;;;;5.95;1.60;;;;;;;28.39;38.11;102849.06;5214506;28;20508;-40
2022/07/09 11:36:35;;;;;;;4.55;1.25;;;;;;;28.77;37.71;102842.72;5208221;28;20925;-40
2022/07/09 11:39:09;;;;;;;4.47;1.23;;;;;;;28.95;37.29;102851.75;5212605;28;20404;-45
2022/07/09 11:41:43;;;;;;;6.25;1.27;;;;;;;28.81;37.39;102842.06;5217349;28;20406;-42
2022/07/09 11:44:23;;;;;;;5.88;1.58;;;;;;;28.77;37.50;102840.00;5213425;28;20505;-40
2022/07/09 11:47:09;;;;;;;5.40;1.33;;;;;;;28.76;37.49;102841.91;5214863;28;20507;-39
2022/07/09 11:49:44;;;;;;;7.43;1.60;;;;;;;28.67;37.32;102825.03;5213814;28;20936;-40
2022/07/09 11:52:24;;;;;;;4.30;1.20;;;;;;;28.82;37.17;102849.16;5209087;28;20460;-42
2022/07/09 11:54:59;;;;;;;4.45;1.20;;;;;;;28.72;37.23;102836.06;5210806;28;20936;-41
2022/07/09 11:57:34;;;;;;;7.00;1.23;;;;;;;28.46;37.36;102807.25;5215840;27;20412;-39